createdAt,value
2023-03-28T00:01:40.248Z,45.2
2023-03-28T00:03:23.645Z,45.2
2023-03-28T00:05:07.042Z,45.1
2023-03-28T00:06:50.440Z,45.1
2023-03-28T00:08:33.822Z,45.1
2023-03-28T00:10:17.224Z,45.2
2023-03-28T00:12:00.925Z,45.2
2023-03-28T00:13:44.337Z,45.2
2023-03-28T00:15:27.842Z,45.2
2023-03-28T00:17:11.128Z,45.2
2023-03-28T00:18:54.515Z,45.2
2023-03-28T00:20:37.922Z,45.3
2023-03-28T00:22:21.334Z,45.2
2023-03-28T00:24:04.725Z,45.2
2023-03-28T00:27:31.180Z,45.3
2023-03-28T00:29:14.583Z,45.3
2023-03-28T00:30:57.980Z,45.3
2023-03-28T00:32:41.361Z,45.4
2023-03-28T00:34:24.783Z,45.4
2023-03-28T00:36:08.174Z,45.4
2023-03-28T00:37:51.561Z,45.4
2023-03-28T00:39:34.948Z,45.4
2023-03-28T00:43:01.425Z,45.4
2023-03-28T00:44:44.834Z,45.3
2023-03-28T00:46:28.214Z,45.3
2023-03-28T00:48:11.626Z,45.4
2023-03-28T00:49:55.009Z,45.4
2023-03-28T00:51:38.412Z,45.4
2023-03-28T00:53:21.812Z,45.4
2023-03-28T00:55:05.195Z,45.4
2023-03-28T00:58:31.759Z,45.4
2023-03-28T01:00:15.083Z,45.4
2023-03-28T01:01:58.473Z,45.4
2023-03-28T01:03:41.858Z,45.5
2023-03-28T01:05:25.250Z,45.5
2023-03-28T01:07:08.672Z,45.4
2023-03-28T01:08:52.035Z,45.4
2023-03-28T01:10:35.449Z,45.4
2023-03-28T01:15:44.679Z,45.4
2023-03-28T01:17:28.096Z,45.4
2023-03-28T01:19:11.469Z,45.4
2023-03-28T01:20:54.853Z,45.4
2023-03-28T01:22:38.368Z,45.3
2023-03-28T01:24:21.643Z,45.3
2023-03-28T01:26:05.063Z,45.4
2023-03-28T01:27:48.446Z,45.4
2023-03-28T01:31:14.917Z,45.3
2023-03-28T01:32:58.306Z,45.2
2023-03-28T01:34:41.721Z,45.2
2023-03-28T01:36:25.121Z,45.2
2023-03-28T01:38:08.517Z,45.3
2023-03-28T01:39:51.906Z,45.3
2023-03-28T01:41:35.284Z,45.1
2023-03-28T01:43:18.676Z,45.2
2023-03-28T01:48:27.931Z,45.2
2023-03-28T01:50:11.327Z,45.1
2023-03-28T01:51:54.805Z,45.2
2023-03-28T01:53:38.140Z,45.2
2023-03-28T01:55:21.530Z,45.2
2023-03-28T01:57:04.919Z,45.1
2023-03-28T01:58:48.333Z,45.1
2023-03-28T02:00:31.703Z,45.1
2023-03-28T02:05:40.951Z,45.1
2023-03-28T02:07:24.355Z,45
2023-03-28T02:09:07.751Z,45.1
2023-03-28T02:10:51.130Z,45
2023-03-28T02:12:34.533Z,45
2023-03-28T02:14:17.923Z,45.1
2023-03-28T02:16:01.321Z,45.1
2023-03-28T02:17:44.718Z,45
2023-03-28T02:21:11.186Z,45
2023-03-28T02:22:54.605Z,45
2023-03-28T02:24:37.978Z,45
2023-03-28T02:26:21.379Z,45
2023-03-28T02:28:04.787Z,45
2023-03-28T02:29:48.170Z,44.9
2023-03-28T02:31:31.576Z,44.9
2023-03-28T02:33:14.985Z,44.9
2023-03-28T02:36:41.446Z,44.9
2023-03-28T02:38:24.922Z,44.9
2023-03-28T02:40:08.233Z,45
2023-03-28T02:41:51.629Z,44.9
2023-03-28T02:43:35.041Z,45
2023-03-28T02:45:18.462Z,45
2023-03-28T02:47:01.819Z,45
2023-03-28T02:48:45.223Z,44.9
2023-03-28T02:52:11.682Z,44.8
2023-03-28T02:53:55.170Z,44.9
2023-03-28T02:55:38.489Z,45
2023-03-28T02:57:21.873Z,44.9
2023-03-28T02:59:05.285Z,44.9
2023-03-28T03:00:48.677Z,44.9
2023-03-28T03:02:32.236Z,44.9
2023-03-28T03:04:15.460Z,44.9
2023-03-28T03:07:41.929Z,44.9
2023-03-28T03:09:25.340Z,44.9
2023-03-28T03:11:08.726Z,45
2023-03-28T03:12:52.117Z,45.1
2023-03-28T03:14:35.519Z,45.1
2023-03-28T03:16:18.913Z,45
2023-03-28T03:18:02.312Z,45
2023-03-28T03:19:45.715Z,44.9
2023-03-28T03:23:12.189Z,44.9
2023-03-28T03:24:55.569Z,44.9
2023-03-28T03:26:38.971Z,44.9
2023-03-28T03:28:22.415Z,44.9
2023-03-28T03:30:05.765Z,44.9
2023-03-28T03:31:49.203Z,45
2023-03-28T03:33:32.567Z,44.9
2023-03-28T03:35:15.943Z,44.8
2023-03-28T03:36:59.661Z,44.8
2023-03-28T03:38:43.044Z,45
2023-03-28T03:40:26.444Z,44.9
2023-03-28T03:42:09.853Z,44.9
2023-03-28T03:43:53.227Z,44.9
2023-03-28T03:45:36.641Z,44.9
2023-03-28T03:47:20.008Z,44.8
2023-03-28T03:49:03.441Z,44.8
2023-03-28T03:52:29.896Z,44.8
2023-03-28T03:54:13.295Z,44.8
2023-03-28T03:55:56.701Z,44.8
2023-03-28T03:57:40.078Z,44.9
2023-03-28T03:59:23.490Z,44.8
2023-03-28T04:01:06.872Z,44.8
2023-03-28T04:02:50.298Z,44.9
2023-03-28T04:04:33.814Z,44.9
2023-03-28T04:09:42.922Z,44.8
2023-03-28T04:11:26.311Z,44.9
2023-03-28T04:13:09.746Z,44.9
2023-03-28T04:14:53.111Z,44.9
2023-03-28T04:16:36.484Z,44.9
2023-03-28T04:18:19.944Z,45
2023-03-28T04:20:03.280Z,45
2023-03-28T04:21:46.678Z,45
2023-03-28T04:25:13.161Z,45
2023-03-28T04:26:56.592Z,45
2023-03-28T04:28:39.960Z,45
2023-03-28T04:30:23.338Z,44.9
2023-03-28T04:32:06.830Z,44.9
2023-03-28T04:33:50.144Z,45
2023-03-28T04:35:33.529Z,45
2023-03-28T04:37:16.931Z,45
2023-03-28T04:40:43.410Z,45
2023-03-28T04:42:26.849Z,45
2023-03-28T04:44:10.212Z,45
2023-03-28T04:45:53.612Z,45
2023-03-28T04:47:36.997Z,45
2023-03-28T04:49:20.387Z,45
2023-03-28T04:51:03.792Z,45
2023-03-28T04:52:47.186Z,45
2023-03-28T04:54:30.891Z,45
2023-03-28T04:56:14.262Z,45
2023-03-28T04:57:57.724Z,45
2023-03-28T04:59:41.079Z,45
2023-03-28T05:03:07.929Z,45
2023-03-28T05:04:51.255Z,45
2023-03-28T05:06:34.653Z,45
2023-03-28T05:08:18.374Z,44.9
2023-03-28T05:10:01.888Z,45
2023-03-28T05:11:45.142Z,45
2023-03-28T05:13:28.604Z,45
2023-03-28T05:15:11.941Z,45
2023-03-28T05:16:55.325Z,45
2023-03-28T05:18:38.729Z,44.9
2023-03-28T05:23:47.966Z,44.9
2023-03-28T05:25:31.400Z,44.9
2023-03-28T05:27:14.770Z,45
2023-03-28T05:28:58.205Z,45
2023-03-28T05:30:41.629Z,45
2023-03-28T05:32:24.937Z,45
2023-03-28T05:34:08.349Z,45
2023-03-28T05:35:51.725Z,45
2023-03-28T05:37:35.453Z,44.9
2023-03-28T05:39:18.840Z,45
2023-03-28T05:41:02.241Z,44.9
2023-03-28T05:42:45.632Z,44.9
2023-03-28T05:44:29.030Z,45
2023-03-28T05:46:12.434Z,45
2023-03-28T05:47:55.833Z,45
2023-03-28T05:49:39.228Z,44.9
2023-03-28T05:54:48.473Z,44.9
2023-03-28T05:56:31.901Z,45
2023-03-28T05:58:15.265Z,44.9
2023-03-28T05:59:58.643Z,44.9
2023-03-28T06:01:42.057Z,45
2023-03-28T06:03:25.485Z,44.9
2023-03-28T06:05:08.856Z,44.9
2023-03-28T06:06:52.238Z,44.9
2023-03-28T06:08:35.939Z,44.8
2023-03-28T06:10:19.352Z,44.8
2023-03-28T06:12:02.742Z,44.9
2023-03-28T06:13:46.183Z,44.8
2023-03-28T06:15:29.559Z,44.8
2023-03-28T06:17:12.962Z,44.8
2023-03-28T06:18:56.387Z,44.9
2023-03-28T06:20:39.736Z,44.9
2023-03-28T06:22:23.449Z,44.8
2023-03-28T06:24:06.803Z,44.9
2023-03-28T06:25:50.211Z,44.9
2023-03-28T06:27:33.607Z,44.9
2023-03-28T06:29:17.022Z,44.9
2023-03-28T06:31:00.390Z,44.9
2023-03-28T06:32:43.798Z,44.9
2023-03-28T06:34:27.250Z,44.8
2023-03-28T06:37:53.662Z,44.8
2023-03-28T06:39:37.069Z,44.9
2023-03-28T06:41:20.477Z,44.7
2023-03-28T06:43:03.859Z,44.7
2023-03-28T06:44:47.247Z,44.9
2023-03-28T06:46:30.691Z,44.9
2023-03-28T06:48:14.039Z,45
2023-03-28T06:49:57.425Z,44.9
2023-03-28T06:53:23.904Z,45
2023-03-28T06:55:07.309Z,45
2023-03-28T06:56:50.706Z,45
2023-03-28T07:00:34.866Z,45
2023-03-28T07:03:44.290Z,45
2023-03-28T07:05:27.674Z,45
2023-03-28T07:08:54.252Z,45.1
2023-03-28T07:10:37.549Z,45.1
2023-03-28T07:12:20.956Z,45.1
2023-03-28T07:14:04.344Z,45.1
2023-03-28T07:15:47.762Z,45.1
2023-03-28T07:17:31.144Z,45.1
2023-03-28T07:19:14.557Z,45.1
2023-03-28T07:20:57.929Z,45.1
2023-03-28T07:24:24.417Z,45.1
2023-03-28T07:26:07.804Z,45.1
2023-03-28T07:27:51.192Z,45.1
2023-03-28T07:29:34.586Z,45.1
2023-03-28T07:31:17.994Z,45.1
2023-03-28T07:33:01.376Z,45.1
2023-03-28T07:34:44.801Z,45.1
2023-03-28T07:36:28.195Z,45
2023-03-28T07:39:54.657Z,45
2023-03-28T07:41:38.035Z,45
2023-03-28T07:43:21.431Z,45
2023-03-28T07:45:04.861Z,45
2023-03-28T07:46:48.234Z,45
2023-03-28T07:48:31.627Z,45
2023-03-28T07:50:15.016Z,45
2023-03-28T07:55:24.275Z,45
2023-03-28T07:57:07.676Z,45
2023-03-28T07:58:51.062Z,44.9
2023-03-28T08:00:34.466Z,44.9
2023-03-28T08:02:17.871Z,44.9
2023-03-28T08:04:01.282Z,44.9
2023-03-28T08:05:44.632Z,44.9
2023-03-28T08:09:11.126Z,44.9
2023-03-28T08:10:54.545Z,44.9
2023-03-28T08:12:37.937Z,44.9
2023-03-28T08:14:21.301Z,44.9
2023-03-28T08:16:04.702Z,44.9
2023-03-28T08:17:48.117Z,44.9
2023-03-28T08:19:31.537Z,44.9
2023-03-28T08:21:14.909Z,44.9
2023-03-28T08:22:58.589Z,44.9
2023-03-28T08:24:42.053Z,44.2
2023-03-28T08:26:25.391Z,40.9
2023-03-28T08:28:08.776Z,37.8
2023-03-28T08:29:52.175Z,36.2
2023-03-28T08:31:35.561Z,36.6
2023-03-28T08:33:18.972Z,37.1
2023-03-28T08:35:02.434Z,37.5
2023-03-28T08:38:28.852Z,37.6
2023-03-28T08:40:12.249Z,37.8
2023-03-28T08:41:55.724Z,38
2023-03-28T08:43:39.036Z,38.3
2023-03-28T08:45:22.426Z,38.6
2023-03-28T08:47:05.837Z,38.8
2023-03-28T08:48:49.221Z,39
2023-03-28T08:50:32.637Z,39.1
2023-03-28T08:55:41.861Z,39.5
2023-03-28T08:57:25.265Z,39.7
2023-03-28T08:59:08.660Z,39.8
2023-03-28T09:00:52.056Z,39.9
2023-03-28T09:02:35.458Z,40
2023-03-28T09:04:18.834Z,40
2023-03-28T09:06:02.247Z,40
2023-03-28T09:11:11.521Z,40.2
2023-03-28T09:12:54.954Z,40.2
2023-03-28T09:14:38.286Z,40.3
2023-03-28T09:16:21.684Z,40.4
2023-03-28T09:18:05.070Z,40.6
2023-03-28T09:19:48.494Z,40.6
2023-03-28T09:21:31.867Z,40.8
2023-03-28T09:23:15.253Z,40.9
2023-03-28T09:26:41.727Z,41.1
2023-03-28T09:28:25.123Z,41.3
2023-03-28T09:30:08.518Z,41.5
2023-03-28T09:31:51.919Z,41.5
2023-03-28T09:33:35.308Z,41.6
2023-03-28T09:35:18.709Z,42.1
2023-03-28T09:37:02.123Z,41.7
2023-03-28T09:42:11.404Z,41.8
2023-03-28T09:43:54.744Z,41.9
2023-03-28T09:45:38.291Z,41.9
2023-03-28T09:47:21.564Z,42.1
2023-03-28T09:49:04.968Z,42.1
2023-03-28T09:50:48.331Z,42.1
2023-03-28T09:52:31.756Z,42.1
2023-03-28T09:57:40.979Z,42.4
2023-03-28T09:59:24.369Z,42.5
2023-03-28T10:01:07.769Z,42.6
2023-03-28T10:02:51.275Z,42.7
2023-03-28T10:04:34.566Z,42.7
2023-03-28T10:06:17.943Z,42.7
2023-03-28T10:08:01.337Z,42.7
2023-03-28T10:09:44.735Z,42.7
2023-03-28T10:11:28.468Z,42.8
2023-03-28T10:13:11.832Z,43.1
2023-03-28T10:14:55.315Z,42.9
2023-03-28T10:16:38.673Z,43
2023-03-28T10:18:22.032Z,43
2023-03-28T10:20:05.433Z,42.9
2023-03-28T10:21:48.837Z,42.9
2023-03-28T10:23:32.229Z,42.8
2023-03-28T10:25:15.940Z,42.8
2023-03-28T10:26:59.323Z,42.8
2023-03-28T10:28:42.735Z,42.8
2023-03-28T10:30:26.111Z,42.8
2023-03-28T10:32:09.513Z,42.8
2023-03-28T10:33:52.901Z,42.8
2023-03-28T10:35:36.441Z,42.8
2023-03-28T10:37:19.742Z,42.8
2023-03-28T10:40:46.157Z,42.9
2023-03-28T10:42:29.564Z,42.9
2023-03-28T10:44:12.966Z,42.8
2023-03-28T10:45:56.344Z,42.8
2023-03-28T10:47:39.748Z,42.8
2023-03-28T10:49:23.183Z,42.8
2023-03-28T10:51:06.555Z,42.8
2023-03-28T10:52:49.975Z,42.8
2023-03-28T10:56:16.403Z,42.8
2023-03-28T10:57:59.806Z,42.8
2023-03-28T10:59:43.204Z,42.9
2023-03-28T11:01:26.666Z,42.9
2023-03-28T11:03:10.011Z,42.9
2023-03-28T11:04:53.465Z,42.9
2023-03-28T11:06:36.811Z,42.9
2023-03-28T11:08:20.178Z,42.9
2023-03-28T11:11:46.682Z,43
2023-03-28T11:13:30.202Z,43.1
2023-03-28T11:15:13.455Z,43
2023-03-28T11:16:56.869Z,43
2023-03-28T11:18:40.330Z,43.1
2023-03-28T11:20:23.653Z,43.1
2023-03-28T11:22:07.122Z,43.1
2023-03-28T11:23:50.430Z,43.1
2023-03-28T11:27:16.997Z,43.2
2023-03-28T11:29:00.300Z,43.1
2023-03-28T11:30:43.685Z,43.2
2023-03-28T11:32:27.103Z,43.2
2023-03-28T11:34:10.496Z,43.2
2023-03-28T11:35:53.864Z,43.2
2023-03-28T11:37:37.355Z,43.2
2023-03-28T11:39:20.662Z,43.2
2023-03-28T11:41:04.378Z,43.2
2023-03-28T11:42:47.776Z,43.3
2023-03-28T11:44:31.164Z,43.4
2023-03-28T11:46:14.582Z,43.4
2023-03-28T11:47:57.967Z,43.3
2023-03-28T11:49:41.399Z,43.3
2023-03-28T11:51:24.760Z,43.3
2023-03-28T11:53:08.150Z,43.3
2023-03-28T11:56:34.678Z,43.3
2023-03-28T11:58:18.014Z,43.3
2023-03-28T12:00:01.440Z,43.3
2023-03-28T12:01:44.839Z,43.4
2023-03-28T12:03:28.197Z,43.4
2023-03-28T12:05:11.607Z,43.4
2023-03-28T12:06:55.041Z,43.4
2023-03-28T12:08:38.391Z,43.4
2023-03-28T12:13:47.632Z,43.4
2023-03-28T12:15:31.132Z,43.4
2023-03-28T12:17:14.427Z,43.4
2023-03-28T12:18:57.818Z,43.5
2023-03-28T12:20:41.263Z,43.5
2023-03-28T12:22:24.607Z,43.5
2023-03-28T12:24:07.998Z,43.5
2023-03-28T12:25:51.406Z,43.5
2023-03-28T12:27:35.172Z,43.5
2023-03-28T12:29:18.509Z,43.5
2023-03-28T12:31:01.893Z,43.5
2023-03-28T12:32:45.297Z,43.5
2023-03-28T12:34:28.697Z,43.5
2023-03-28T12:36:12.088Z,43.6
2023-03-28T12:37:55.493Z,43.6
2023-03-28T12:39:38.937Z,43.6
2023-03-28T12:43:05.369Z,43.6
2023-03-28T12:44:48.734Z,43.6
2023-03-28T12:46:32.135Z,43.6
2023-03-28T12:48:15.527Z,43.6
2023-03-28T12:49:58.927Z,43.6
2023-03-28T12:51:42.335Z,43.6
2023-03-28T12:53:25.734Z,43.6
2023-03-28T12:55:09.126Z,43.7
2023-03-28T12:58:35.593Z,43.7
2023-03-28T13:00:18.985Z,43.7
2023-03-28T13:02:02.380Z,43.7
2023-03-28T13:03:45.778Z,43.7
2023-03-28T13:05:29.176Z,43.6
2023-03-28T13:07:12.566Z,43.4
2023-03-28T13:08:55.980Z,43.5
2023-03-28T13:10:39.361Z,43.5
2023-03-28T13:14:05.826Z,43.5
2023-03-28T13:15:49.238Z,43.5
2023-03-28T13:17:32.620Z,43.6
2023-03-28T13:19:16.024Z,43.7
2023-03-28T13:20:59.430Z,43.7
2023-03-28T13:22:42.870Z,43.6
2023-03-28T13:24:26.229Z,43.6
2023-03-28T13:26:09.612Z,43.6
2023-03-28T13:29:36.085Z,43.7
2023-03-28T13:31:19.495Z,43.7
2023-03-28T13:33:02.885Z,43.8
2023-03-28T13:34:46.271Z,44
2023-03-28T13:36:29.677Z,44
2023-03-28T13:38:13.059Z,43.9
2023-03-28T13:39:56.451Z,43.9
2023-03-28T13:41:39.865Z,43.8
2023-03-28T13:45:06.341Z,44
2023-03-28T13:46:49.732Z,44
2023-03-28T13:48:33.146Z,43.9
2023-03-28T13:50:16.527Z,44
2023-03-28T13:51:59.912Z,44
2023-03-28T13:53:43.302Z,44
2023-03-28T13:55:26.717Z,44.2
2023-03-28T14:00:35.944Z,43.8
2023-03-28T14:02:19.354Z,43.6
2023-03-28T14:04:02.744Z,43.5
2023-03-28T14:05:46.124Z,43.5
2023-03-28T14:07:29.581Z,43.4
2023-03-28T14:09:12.963Z,43.4
2023-03-28T14:10:56.322Z,43.3
2023-03-28T14:12:39.729Z,43.3
2023-03-28T14:16:06.202Z,43.6
2023-03-28T14:17:49.582Z,44.2
2023-03-28T14:19:32.987Z,43.7
2023-03-28T14:21:16.408Z,43.7
2023-03-28T14:22:59.787Z,43.5
2023-03-28T14:24:43.189Z,43.5
2023-03-28T14:26:26.577Z,43.8
2023-03-28T14:28:09.971Z,43.6
2023-03-28T14:31:36.430Z,43.4
2023-03-28T14:33:19.844Z,43.7
2023-03-28T14:35:03.238Z,43.9
2023-03-28T14:36:46.632Z,43.9
2023-03-28T14:38:30.041Z,43.4
2023-03-28T14:40:13.414Z,43.1
2023-03-28T14:41:56.812Z,43.1
2023-03-28T14:43:40.248Z,43.2
2023-03-28T14:45:23.915Z,43.2
2023-03-28T14:47:07.316Z,43.2
2023-03-28T14:48:50.834Z,43.2
2023-03-28T14:50:34.113Z,43.2
2023-03-28T14:52:17.513Z,43.2
2023-03-28T14:54:00.914Z,43.2
2023-03-28T14:55:44.297Z,43.2
2023-03-28T14:57:27.698Z,43.2
2023-03-28T15:00:54.152Z,43.3
2023-03-28T15:02:37.571Z,43.3
2023-03-28T15:04:20.963Z,43.3
2023-03-28T15:06:04.341Z,43.4
2023-03-28T15:07:47.754Z,43.4
2023-03-28T15:09:31.140Z,43.4
2023-03-28T15:11:14.544Z,43.5
2023-03-28T15:12:57.939Z,43.5
2023-03-28T15:16:24.441Z,43.5
2023-03-28T15:18:07.798Z,43.5
2023-03-28T15:19:51.188Z,43.5
2023-03-28T15:21:34.614Z,43.5
2023-03-28T15:23:17.989Z,43.4
2023-03-28T15:25:01.411Z,43.4
2023-03-28T15:26:44.787Z,43.7
2023-03-28T15:28:28.192Z,43.8
2023-03-28T15:31:54.643Z,43.8
2023-03-28T15:33:38.054Z,43.7
2023-03-28T15:35:21.436Z,43.5
2023-03-28T15:37:04.864Z,43.5
2023-03-28T15:38:48.224Z,43.5
2023-03-28T15:40:31.623Z,43.5
2023-03-28T15:42:15.019Z,43.8
2023-03-28T15:47:24.262Z,43.5
2023-03-28T15:49:07.719Z,43.4
2023-03-28T15:50:51.058Z,43.4
2023-03-28T15:52:34.446Z,43.4
2023-03-28T15:54:17.851Z,43.5
2023-03-28T15:56:01.237Z,43.5
2023-03-28T15:57:44.665Z,43.5
2023-03-28T15:59:28.045Z,43.4
2023-03-28T16:01:11.738Z,43.3
2023-03-28T16:02:55.140Z,43.3
2023-03-28T16:04:38.532Z,43.3
2023-03-28T16:06:21.934Z,43.3
2023-03-28T16:08:05.324Z,43.3
2023-03-28T16:09:48.720Z,43.3
2023-03-28T16:11:32.117Z,43.3
2023-03-28T16:13:15.513Z,43.2
2023-03-28T16:16:41.997Z,43.3
2023-03-28T16:18:25.376Z,43.2
2023-03-28T16:20:08.783Z,43.2
2023-03-28T16:21:52.182Z,43.2
2023-03-28T16:23:35.569Z,43.2
2023-03-28T16:25:18.980Z,43.2
2023-03-28T16:27:02.372Z,43.2
2023-03-28T16:28:45.829Z,43.2
2023-03-28T16:32:12.358Z,43.2
2023-03-28T16:33:55.675Z,43.2
2023-03-28T16:35:39.027Z,43.2
2023-03-28T16:37:22.414Z,43.3
2023-03-28T16:39:05.813Z,43.3
2023-03-28T16:40:49.209Z,43.3
2023-03-28T16:42:32.599Z,43.3
2023-03-28T16:44:16.000Z,43.4
2023-03-28T16:47:42.468Z,43.4
2023-03-28T16:49:25.892Z,43.3
2023-03-28T16:51:09.260Z,43.4
2023-03-28T16:52:52.847Z,43.4
2023-03-28T16:54:36.055Z,43.3
2023-03-28T16:56:19.450Z,43.5
2023-03-28T16:58:02.861Z,43.4
2023-03-28T16:59:46.287Z,43.4
2023-03-28T17:01:29.945Z,43.8
2023-03-28T17:03:13.352Z,43.8
2023-03-28T17:04:56.892Z,43.7
2023-03-28T17:06:40.150Z,43.8
2023-03-28T17:08:23.543Z,43.8
2023-03-28T17:10:06.950Z,43.8
2023-03-28T17:11:50.324Z,43.8
2023-03-28T17:13:33.763Z,43.7
2023-03-28T17:17:00.188Z,43.7
2023-03-28T17:18:43.595Z,43.7
2023-03-28T17:20:27.009Z,43.8
2023-03-28T17:22:10.374Z,43.8
2023-03-28T17:23:53.784Z,43.8
2023-03-28T17:25:37.187Z,43.8
2023-03-28T17:27:20.564Z,43.8
2023-03-28T17:29:03.999Z,43.8
2023-03-28T17:32:30.449Z,43.7
2023-03-28T17:34:13.839Z,43.7
2023-03-28T17:35:57.227Z,43.8
2023-03-28T17:37:40.639Z,43.7
2023-03-28T17:39:24.025Z,43.7
2023-03-28T17:41:07.410Z,43.7
2023-03-28T17:42:50.814Z,43.7
2023-03-28T17:44:34.229Z,43.7
2023-03-28T17:46:17.910Z,43.7
2023-03-28T17:48:01.309Z,43.7
2023-03-28T17:49:44.701Z,43.7
2023-03-28T17:51:28.092Z,43.7
2023-03-28T17:53:11.506Z,43.7
2023-03-28T17:54:54.878Z,43.7
2023-03-28T17:56:38.317Z,43.7
2023-03-28T17:58:21.697Z,43.6
2023-03-28T18:01:48.182Z,43.5
2023-03-28T18:03:31.558Z,43.5
2023-03-28T18:05:14.965Z,43.6
2023-03-28T18:06:58.361Z,43.8
2023-03-28T18:08:41.754Z,43.9
2023-03-28T18:10:25.147Z,44.1
2023-03-28T18:12:08.537Z,44.3
2023-03-28T18:13:51.941Z,44.4
2023-03-28T18:15:35.636Z,44.4
2023-03-28T18:17:19.052Z,44.5
2023-03-28T18:19:02.439Z,44.5
2023-03-28T18:20:45.830Z,44.6
2023-03-28T18:22:29.235Z,44.6
2023-03-28T18:24:12.645Z,44.6
2023-03-28T18:25:56.018Z,44.7
2023-03-28T18:27:39.427Z,44.7
2023-03-28T18:29:23.126Z,44.8
2023-03-28T18:31:06.528Z,44.8
2023-03-28T18:32:49.910Z,44.8
2023-03-28T18:34:33.316Z,44.9
2023-03-28T18:36:16.704Z,45.1
2023-03-28T18:38:00.109Z,45.2
2023-03-28T18:39:43.507Z,45.2
2023-03-28T18:41:26.890Z,45.3
2023-03-28T18:44:53.384Z,45.2
2023-03-28T18:46:36.758Z,45.1
2023-03-28T18:48:20.162Z,45
2023-03-28T18:50:03.567Z,44.9
2023-03-28T18:51:46.960Z,45
2023-03-28T18:53:30.352Z,45
2023-03-28T18:55:13.842Z,45
2023-03-28T19:00:22.992Z,44.8
2023-03-28T19:02:06.398Z,44.8
2023-03-28T19:03:49.801Z,44.8
2023-03-28T19:05:33.190Z,44.8
2023-03-28T19:07:16.576Z,44.8
2023-03-28T19:08:59.963Z,45
2023-03-28T19:10:43.380Z,45
2023-03-28T19:15:52.607Z,44.9
2023-03-28T19:17:36.036Z,44.9
2023-03-28T19:19:19.429Z,44.9
2023-03-28T19:21:02.834Z,44.9
2023-03-28T19:22:46.194Z,44.9
2023-03-28T19:24:29.600Z,44.9
2023-03-28T19:26:12.993Z,44.9
2023-03-28T19:31:22.257Z,44.9
2023-03-28T19:33:05.652Z,44.9
2023-03-28T19:34:49.023Z,44.9
2023-03-28T19:36:32.417Z,45
2023-03-28T19:38:15.820Z,45
2023-03-28T19:39:59.221Z,45
2023-03-28T19:41:42.627Z,44.9
2023-03-28T19:45:09.084Z,45
2023-03-28T19:46:52.480Z,45
2023-03-28T19:48:35.877Z,45
2023-03-28T19:50:19.265Z,45
2023-03-28T19:52:02.697Z,45
2023-03-28T19:53:46.083Z,45.1
2023-03-28T19:55:29.477Z,45.1
2023-03-28T19:57:12.870Z,45.5
2023-03-28T20:00:39.332Z,45.2
2023-03-28T20:02:22.745Z,45.1
2023-03-28T20:04:06.130Z,45.4
2023-03-28T20:05:49.531Z,45.4
2023-03-28T20:07:32.915Z,45.3
2023-03-28T20:09:16.349Z,45.3
2023-03-28T20:10:59.709Z,45.3
2023-03-28T20:12:43.124Z,45.3
2023-03-28T20:16:09.596Z,45.7
2023-03-28T20:17:52.987Z,45.8
2023-03-28T20:19:36.375Z,45.5
2023-03-28T20:21:19.759Z,45.4
2023-03-28T20:23:03.162Z,45.3
2023-03-28T20:24:46.558Z,45.3
2023-03-28T20:26:29.962Z,45.3
2023-03-28T20:28:13.347Z,45.3
2023-03-28T20:33:22.604Z,45.2
2023-03-28T20:35:06.000Z,45.2
2023-03-28T20:36:49.391Z,45.3
2023-03-28T20:38:32.796Z,45.2
2023-03-28T20:40:16.178Z,45.2
2023-03-28T20:41:59.586Z,45.2
2023-03-28T20:43:42.979Z,45.2
2023-03-28T20:45:26.358Z,45.2
2023-03-28T20:48:52.847Z,45.2
2023-03-28T20:50:36.261Z,45.2
2023-03-28T20:52:19.633Z,45.2
2023-03-28T20:54:03.065Z,45.2
2023-03-28T20:55:46.420Z,45.2
2023-03-28T20:57:29.816Z,45.2
2023-03-28T20:59:13.232Z,45.1
2023-03-28T21:00:56.622Z,45.2
2023-03-28T21:04:23.102Z,45.1
2023-03-28T21:06:06.487Z,45.1
2023-03-28T21:07:49.870Z,45.1
2023-03-28T21:09:33.285Z,45.2
2023-03-28T21:11:16.675Z,45.2
2023-03-28T21:13:00.086Z,45.2
2023-03-28T21:14:43.478Z,45.2
2023-03-28T21:16:26.869Z,45.1
2023-03-28T21:19:53.330Z,45.2
2023-03-28T21:21:36.732Z,45.3
2023-03-28T21:23:20.130Z,45.2
2023-03-28T21:25:03.523Z,45.2
2023-03-28T21:26:46.937Z,45.3
2023-03-28T21:28:30.321Z,45.3
2023-03-28T21:30:13.732Z,45.3
2023-03-28T21:31:57.113Z,45.3
2023-03-28T21:35:23.583Z,45.3
2023-03-28T21:37:06.979Z,45.3
2023-03-28T21:38:50.403Z,45.3
2023-03-28T21:40:33.780Z,45.3
2023-03-28T21:42:17.168Z,45.3
2023-03-28T21:44:00.570Z,45.3
2023-03-28T21:45:43.978Z,45.3
2023-03-28T21:47:27.375Z,45.3
2023-03-28T21:50:53.845Z,45.3
2023-03-28T21:52:37.232Z,45.3
2023-03-28T21:54:20.626Z,45.3
2023-03-28T21:56:04.029Z,45.3
2023-03-28T21:57:47.427Z,45.3
2023-03-28T21:59:30.824Z,45.3
2023-03-28T22:01:14.219Z,45.4
2023-03-28T22:02:57.622Z,45.5
2023-03-28T22:04:41.335Z,45.3
2023-03-28T22:06:24.720Z,45.4
2023-03-28T22:08:08.110Z,45.7
2023-03-28T22:09:51.505Z,45.7
2023-03-28T22:11:34.931Z,45.8
2023-03-28T22:13:18.293Z,45.8
2023-03-28T22:15:01.757Z,45.8
2023-03-28T22:16:45.105Z,45.8
2023-03-28T22:18:28.809Z,45.7
2023-03-28T22:20:12.201Z,45.7
2023-03-28T22:21:55.592Z,45.6
2023-03-28T22:23:38.995Z,45.6
2023-03-28T22:25:22.392Z,45.7
2023-03-28T22:27:05.786Z,45.6
2023-03-28T22:28:49.191Z,45.5
2023-03-28T22:30:32.568Z,45.5
2023-03-28T22:33:59.046Z,45.5
2023-03-28T22:35:42.442Z,45.4
2023-03-28T22:37:25.889Z,45.5
2023-03-28T22:39:09.250Z,45.5
2023-03-28T22:40:52.638Z,45.5
2023-03-28T22:42:36.043Z,45.5
2023-03-28T22:44:19.508Z,45.5
2023-03-28T22:49:28.669Z,45.5
2023-03-28T22:51:12.075Z,45.5
2023-03-28T22:52:55.470Z,45.5
2023-03-28T22:54:38.872Z,45.5
2023-03-28T22:56:22.250Z,45.5
2023-03-28T22:58:05.709Z,45.5
2023-03-28T22:59:49.045Z,45.5
2023-03-28T23:04:58.296Z,45.5
2023-03-28T23:06:41.714Z,45.4
2023-03-28T23:08:25.089Z,45.5
2023-03-28T23:10:08.475Z,45.5
2023-03-28T23:11:51.881Z,45.5
2023-03-28T23:13:35.278Z,45.5
2023-03-28T23:15:18.656Z,45.5
2023-03-28T23:17:02.066Z,45.4
2023-03-28T23:18:45.775Z,45.5
2023-03-28T23:20:29.159Z,45.5
2023-03-28T23:22:12.598Z,45.5
2023-03-28T23:23:55.964Z,45.5
2023-03-28T23:25:39.360Z,45.5
2023-03-28T23:27:22.779Z,45.6
2023-03-28T23:29:06.153Z,45.7
2023-03-28T23:34:15.387Z,45.1
2023-03-28T23:35:58.776Z,45
2023-03-28T23:37:42.175Z,44.7
2023-03-28T23:39:25.582Z,44.5
2023-03-28T23:41:08.990Z,44.4
2023-03-28T23:42:52.362Z,44.3
2023-03-28T23:44:35.767Z,44.2
2023-03-28T23:48:02.223Z,44.4
2023-03-28T23:49:45.635Z,44.4
2023-03-28T23:51:29.051Z,44.3
2023-03-28T23:53:12.404Z,44.4
2023-03-28T23:54:55.852Z,44.4
2023-03-28T23:56:39.224Z,44.4
2023-03-28T23:58:22.604Z,44.4
